Time;durP1;ratioP1;P1;durP2;ratioP2;P2;SDS_P1;SDS_P2;PMS_P1;PMS_P2;Temp;Humidity;BMP_temperature;BMP_pressure;BME280_temperature;BME280_humidity;BME280_pressure;Samples;Min_cycle;Max_cycle;Signal;HPM_P1;HPM_P2
2023/06/01 00:01:51;;;;;;;9.55;5.55;;;;;;;;;;5022883;28;20132;-74
2023/06/01 00:04:20;;;;;;;10.85;5.07;;;;;;;;;;5021694;28;20460;-76
2023/06/01 00:06:45;;;;;;;9.82;5.63;;;;;;;;;;5023743;28;20049;-74
2023/06/01 00:09:10;;;;;;;8.88;5.40;;;;;;;;;;5021990;28;20553;-75
2023/06/01 00:11:37;;;;;;;8.55;5.03;;;;;;;;;;5022082;28;20136;-75
2023/06/01 00:14:03;;;;;;;8.27;5.00;;;;;;;;;;5023377;28;20056;-75
2023/06/01 00:16:30;;;;;;;10.63;5.25;;;;;;;;;;5023735;28;20037;-75
2023/06/01 00:18:56;;;;;;;8.85;5.07;;;;;;;;;;5022785;28;20129;-75
2023/06/01 00:21:22;;;;;;;9.20;5.40;;;;;;;;;;5021840;28;20064;-74
2023/06/01 00:23:49;;;;;;;9.13;5.10;;;;;;;;;;5022890;28;20045;-76
2023/06/01 00:26:14;;;;;;;11.30;5.70;;;;;;;;;;5022482;28;20049;-77
2023/06/01 00:28:43;;;;;;;9.00;5.50;;;;;;;;;;5037365;28;20065;-74
2023/06/01 00:31:09;;;;;;;9.55;5.38;;;;;;;;;;5019857;28;20508;-75
2023/06/01 00:33:34;;;;;;;8.15;4.75;;;;;;;;;;5026194;28;20053;-75
2023/06/01 00:35:59;;;;;;;13.35;5.18;;;;;;;;;;5038314;28;20045;-76
2023/06/01 00:38:25;;;;;;;13.30;5.60;;;;;;;;;;5015689;28;20041;-74
2023/06/01 00:40:51;;;;;;;13.40;5.32;;;;;;;;;;5038664;28;20045;-78
2023/06/01 00:43:18;;;;;;;7.13;5.53;;;;;;;;;;5020167;28;20124;-76
2023/06/01 00:45:43;;;;;;;9.60;5.03;;;;;;;;;;5020537;28;20060;-74
2023/06/01 00:48:10;;;;;;;7.93;5.43;;;;;;;;;;5027944;28;20298;-75
2023/06/01 00:50:35;;;;;;;8.55;5.28;;;;;;;;;;5021039;28;20116;-74
2023/06/01 00:53:02;;;;;;;8.48;5.35;;;;;;;;;;5022530;28;20127;-74
2023/06/01 00:55:28;;;;;;;10.18;4.97;;;;;;;;;;5037406;28;20041;-74
2023/06/01 00:57:55;;;;;;;8.10;5.20;;;;;;;;;;5021763;28;20571;-75
2023/06/01 01:00:22;;;;;;;9.60;5.20;;;;;;;;;;5020338;28;20083;-77
2023/06/01 01:02:48;;;;;;;8.25;5.20;;;;;;;;;;5003813;28;20037;-74
2023/06/01 01:05:16;;;;;;;9.48;5.30;;;;;;;;;;5021110;28;20387;-75
2023/06/01 01:07:41;;;;;;;9.07;5.53;;;;;;;;;;5022761;28;20045;-79
2023/06/01 01:10:09;;;;;;;11.35;5.97;;;;;;;;;;5026618;28;20508;-74
2023/06/01 01:12:50;;;;;;;11.40;5.15;;;;;;;;;;5016059;28;20050;-75
2023/06/01 01:15:31;;;;;;;11.63;5.68;;;;;;;;;;5016119;28;20049;-74
2023/06/01 01:18:07;;;;;;;12.00;5.40;;;;;;;;;;5022099;28;20041;-76
2023/06/01 01:20:38;;;;;;;10.85;5.45;;;;;;;;;;5020698;28;20069;-74
2023/06/01 01:23:29;;;;;;;10.63;5.22;;;;;;;;;;5019638;28;20077;-74
2023/06/01 01:26:26;;;;;;;9.20;5.30;;;;;;;;;;5021244;28;20136;-74
2023/06/01 01:29:03;;;;;;;14.77;5.93;;;;;;;;;;5011638;28;20045;-74
2023/06/01 01:31:30;;;;;;;9.63;5.53;;;;;;;;;;5014295;28;20065;-74
2023/06/01 01:33:57;;;;;;;10.45;5.43;;;;;;;;;;5023878;28;20053;-74
2023/06/01 01:36:24;;;;;;;11.77;5.50;;;;;;;;;;5022855;28;20142;-73
2023/06/01 01:38:49;;;;;;;10.32;5.78;;;;;;;;;;5018970;28;20061;-74
2023/06/01 01:41:16;;;;;;;9.88;5.40;;;;;;;;;;5021691;28;20098;-74
2023/06/01 01:43:42;;;;;;;13.60;5.32;;;;;;;;;;5024347;28;20045;-74
2023/06/01 01:46:36;;;;;;;8.43;5.22;;;;;;;;;;5006146;28;20144;-74
2023/06/01 01:49:12;;;;;;;11.63;5.03;;;;;;;;;;5014221;28;20520;-75
2023/06/01 01:52:02;;;;;;;9.82;6.53;;;;;;;;;;5015266;28;20056;-74
2023/06/01 01:54:28;;;;;;;8.35;5.35;;;;;;;;;;4998115;28;20049;-74
2023/06/01 01:56:58;;;;;;;8.98;5.72;;;;;;;;;;5039548;28;20599;-74
2023/06/01 01:59:24;;;;;;;13.63;5.90;;;;;;;;;;5015063;28;20081;-74
2023/06/01 02:01:50;;;;;;;8.82;5.57;;;;;;;;;;5006271;28;20038;-75
2023/06/01 02:04:15;;;;;;;10.65;6.07;;;;;;;;;;5022234;28;20045;-74
2023/06/01 02:06:41;;;;;;;8.38;6.15;;;;;;;;;;5039206;28;20050;-74
2023/06/01 02:09:07;;;;;;;12.23;6.47;;;;;;;;;;5005121;28;20042;-75
2023/06/01 02:11:34;;;;;;;8.93;6.80;;;;;;;;;;5006186;28;20098;-74
2023/06/01 02:14:00;;;;;;;12.65;6.53;;;;;;;;;;5005698;28;20037;-74
2023/06/01 02:16:26;;;;;;;9.80;6.28;;;;;;;;;;5022274;28;20052;-74
2023/06/01 02:18:51;;;;;;;11.52;5.88;;;;;;;;;;5023568;28;20482;-74
2023/06/01 02:21:17;;;;;;;7.57;5.25;;;;;;;;;;5020776;28;20065;-73
2023/06/01 02:23:44;;;;;;;11.27;5.85;;;;;;;;;;5022297;28;20056;-73
2023/06/01 02:26:10;;;;;;;13.38;6.32;;;;;;;;;;5023437;28;20410;-73
2023/06/01 02:28:39;;;;;;;12.02;6.57;;;;;;;;;;5023634;28;20520;-73
2023/06/01 02:31:05;;;;;;;11.60;5.97;;;;;;;;;;5022807;28;20605;-74
2023/06/01 02:33:32;;;;;;;8.80;6.07;;;;;;;;;;5021963;28;20494;-73
2023/06/01 02:35:57;;;;;;;9.65;6.10;;;;;;;;;;5023204;28;20046;-74
2023/06/01 02:38:23;;;;;;;10.02;6.05;;;;;;;;;;5009104;28;20581;-75
2023/06/01 02:40:49;;;;;;;9.75;6.00;;;;;;;;;;5024979;28;20387;-75
2023/06/01 02:43:15;;;;;;;10.95;6.22;;;;;;;;;;5039970;28;20096;-75
2023/06/01 02:45:40;;;;;;;14.13;6.90;;;;;;;;;;5024624;28;20045;-75
2023/06/01 02:48:06;;;;;;;9.43;6.00;;;;;;;;;;5041142;28;20111;-75
2023/06/01 02:50:31;;;;;;;7.82;6.13;;;;;;;;;;5041063;28;20147;-74
2023/06/01 02:52:57;;;;;;;12.25;6.05;;;;;;;;;;5031549;28;20030;-75
2023/06/01 02:55:22;;;;;;;17.98;6.40;;;;;;;;;;5040091;28;20115;-75
2023/06/01 02:58:17;;;;;;;8.20;5.28;;;;;;;;;;5025097;28;20045;-75
2023/06/01 03:01:02;;;;;;;9.15;5.57;;;;;;;;;;5013287;28;20526;-75
2023/06/01 03:03:27;;;;;;;8.77;5.43;;;;;;;;;;5032467;28;20084;-74
2023/06/01 03:05:55;;;;;;;9.05;5.50;;;;;;;;;;5040415;28;20049;-75
2023/06/01 03:08:49;;;;;;;11.13;5.63;;;;;;;;;;5017507;28;20081;-75
2023/06/01 03:11:34;;;;;;;7.45;5.45;;;;;;;;;;5039064;28;20060;-75
2023/06/01 03:14:00;;;;;;;7.55;5.10;;;;;;;;;;5040758;28;20041;-75
2023/06/01 03:16:27;;;;;;;11.20;5.68;;;;;;;;;;5007793;28;20049;-75
2023/06/01 03:19:04;;;;;;;10.48;5.13;;;;;;;;;;5040674;28;20049;-75
2023/06/01 03:21:31;;;;;;;9.27;5.53;;;;;;;;;;5024776;28;20064;-75
2023/06/01 03:23:56;;;;;;;12.48;5.80;;;;;;;;;;5008044;28;20077;-75
2023/06/01 03:26:22;;;;;;;8.10;4.90;;;;;;;;;;5040528;28;20080;-75
2023/06/01 03:28:47;;;;;;;9.23;5.45;;;;;;;;;;5007898;28;20099;-75
2023/06/01 03:31:13;;;;;;;9.00;5.70;;;;;;;;;;5031954;28;20129;-75
2023/06/01 03:33:39;;;;;;;11.73;5.53;;;;;;;;;;5031498;28;20054;-75
2023/06/01 03:36:07;;;;;;;9.68;5.68;;;;;;;;;;5007248;28;20049;-75
2023/06/01 03:38:32;;;;;;;6.40;5.03;;;;;;;;;;5023465;28;20045;-75
2023/06/01 03:40:58;;;;;;;9.23;5.50;;;;;;;;;;5023226;28;20041;-76
2023/06/01 03:43:23;;;;;;;10.80;5.75;;;;;;;;;;5039844;28;20128;-75
2023/06/01 03:45:49;;;;;;;8.02;5.45;;;;;;;;;;5017126;28;20045;-74
2023/06/01 03:48:15;;;;;;;9.65;5.65;;;;;;;;;;5034717;28;20132;-74
2023/06/01 03:50:41;;;;;;;7.53;5.65;;;;;;;;;;5020443;28;20044;-75
2023/06/01 03:53:06;;;;;;;11.48;5.47;;;;;;;;;;5019333;28;20099;-75
2023/06/01 03:55:32;;;;;;;13.50;5.60;;;;;;;;;;5021026;28;20052;-75
2023/06/01 03:58:04;;;;;;;10.50;5.95;;;;;;;;;;5006281;28;20714;-75
2023/06/01 04:00:31;;;;;;;9.27;5.72;;;;;;;;;;5020041;28;20045;-76
2023/06/01 04:03:00;;;;;;;8.85;5.90;;;;;;;;;;5002904;28;20037;-77
2023/06/01 04:05:26;;;;;;;13.73;5.95;;;;;;;;;;5003326;28;20406;-75
2023/06/01 04:07:53;;;;;;;14.63;5.90;;;;;;;;;;5019226;28;20052;-79
2023/06/01 04:10:19;;;;;;;18.13;5.72;;;;;;;;;;5018981;28;20046;-77
2023/06/01 04:12:46;;;;;;;11.77;5.50;;;;;;;;;;5019542;28;20041;-76
2023/06/01 04:15:14;;;;;;;15.75;5.80;;;;;;;;;;5030251;28;20048;-76
2023/06/01 04:17:41;;;;;;;13.20;5.63;;;;;;;;;;5019175;28;20092;-77
2023/06/01 04:20:10;;;;;;;12.85;5.38;;;;;;;;;;5019047;28;20056;-79
2023/06/01 04:22:37;;;;;;;11.77;5.35;;;;;;;;;;5034990;28;20034;-80
2023/06/01 04:25:11;;;;;;;10.63;5.85;;;;;;;;;;5018059;28;20550;-76
2023/06/01 04:27:44;;;;;;;8.45;6.13;;;;;;;;;;5019189;28;20402;-75
2023/06/01 04:30:10;;;;;;;;;;;;;;;;;;5011459;28;20064;-74
2023/06/01 04:32:37;;;;;;;9.88;5.45;;;;;;;;;;5010671;28;19929;-76
2023/06/01 04:35:05;;;;;;;13.13;5.70;;;;;;;;;;5035148;28;20123;-78
2023/06/01 04:37:35;;;;;;;8.60;5.78;;;;;;;;;;5002512;28;20827;-77
2023/06/01 04:40:07;;;;;;;12.15;5.40;;;;;;;;;;5012881;28;20041;-76
2023/06/01 04:42:34;;;;;;;9.90;5.63;;;;;;;;;;5024354;28;20037;-74
2023/06/01 04:45:04;;;;;;;7.43;5.40;;;;;;;;;;5012332;28;20041;-75
2023/06/01 04:47:31;;;;;;;9.60;5.65;;;;;;;;;;5019350;28;20051;-74
2023/06/01 04:49:57;;;;;;;8.63;5.20;;;;;;;;;;5017403;28;20061;-75
2023/06/01 04:52:24;;;;;;;9.18;5.75;;;;;;;;;;5020120;28;20052;-76
2023/06/01 04:54:51;;;;;;;8.73;5.95;;;;;;;;;;5023256;28;20049;-75
2023/06/01 04:57:16;;;;;;;7.60;5.55;;;;;;;;;;5025637;28;20045;-75
2023/06/01 04:59:42;;;;;;;11.05;5.60;;;;;;;;;;5003507;28;20140;-73
2023/06/01 05:02:08;;;;;;;13.90;6.57;;;;;;;;;;5036496;28;20417;-75
2023/06/01 05:04:34;;;;;;;7.10;5.00;;;;;;;;;;5009213;28;20057;-77
2023/06/01 05:06:59;;;;;;;9.95;5.50;;;;;;;;;;5034216;28;20045;-75
2023/06/01 05:09:25;;;;;;;8.15;5.07;;;;;;;;;;5018933;28;20037;-74
2023/06/01 05:11:51;;;;;;;16.80;5.00;;;;;;;;;;5012283;28;20410;-77
2023/06/01 05:14:17;;;;;;;9.10;4.63;;;;;;;;;;5024993;28;20060;-75
2023/06/01 05:16:43;;;;;;;10.60;5.03;;;;;;;;;;5019255;28;20045;-76
2023/06/01 05:19:09;;;;;;;10.68;4.93;;;;;;;;;;5024683;28;20106;-75
2023/06/01 05:21:35;;;;;;;9.13;5.00;;;;;;;;;;5035424;28;20120;-75
2023/06/01 05:24:01;;;;;;;13.20;5.05;;;;;;;;;;5022671;28;20195;-75
2023/06/01 05:26:26;;;;;;;10.48;5.30;;;;;;;;;;5018257;28;20064;-76
2023/06/01 05:28:52;;;;;;;9.45;5.35;;;;;;;;;;5033847;28;20613;-75
2023/06/01 05:31:19;;;;;;;10.15;5.63;;;;;;;;;;5017536;28;20176;-76
2023/06/01 05:33:51;;;;;;;8.77;5.53;;;;;;;;;;5018013;28;20063;-75
2023/06/01 05:36:17;;;;;;;7.22;5.30;;;;;;;;;;5018464;28;20049;-74
2023/06/01 05:38:42;;;;;;;7.35;5.18;;;;;;;;;;5017183;28;20840;-75
2023/06/01 05:41:08;;;;;;;10.43;5.35;;;;;;;;;;5034323;28;20573;-75
2023/06/01 05:43:37;;;;;;;10.43;5.03;;;;;;;;;;5017827;28;20774;-75
2023/06/01 05:46:04;;;;;;;20.38;5.97;;;;;;;;;;5017735;28;21050;-77
2023/06/01 05:48:30;;;;;;;12.52;5.80;;;;;;;;;;5018001;28;20156;-75
2023/06/01 05:50:55;;;;;;;14.05;6.00;;;;;;;;;;5017394;28;20059;-75
2023/06/01 05:53:24;;;;;;;10.15;4.93;;;;;;;;;;5033919;28;20050;-74
2023/06/01 05:55:51;;;;;;;10.02;5.43;;;;;;;;;;5038158;28;20052;-75
2023/06/01 05:58:17;;;;;;;8.40;5.25;;;;;;;;;;5004883;28;20131;-75
2023/06/01 06:00:42;;;;;;;10.38;5.18;;;;;;;;;;5037979;28;20056;-76
2023/06/01 06:03:08;;;;;;;8.35;4.72;;;;;;;;;;5021371;28;20104;-76
2023/06/01 06:05:33;;;;;;;10.00;5.57;;;;;;;;;;5023045;28;20125;-76
2023/06/01 06:07:59;;;;;;;9.27;5.80;;;;;;;;;;5023797;28;20060;-73
2023/06/01 06:10:24;;;;;;;9.07;4.85;;;;;;;;;;5023778;28;20049;-73
2023/06/01 06:12:50;;;;;;;13.23;5.70;;;;;;;;;;5020479;28;20604;-73
2023/06/01 06:15:16;;;;;;;8.10;5.53;;;;;;;;;;5022257;28;20053;-77
2023/06/01 06:17:42;;;;;;;10.25;5.05;;;;;;;;;;5021795;28;20375;-74
2023/06/01 06:20:09;;;;;;;7.82;5.25;;;;;;;;;;5021856;28;20832;-74
2023/06/01 06:22:34;;;;;;;8.48;5.13;;;;;;;;;;5038439;28;20037;-75
2023/06/01 06:25:00;;;;;;;6.25;4.90;;;;;;;;;;5022743;28;20064;-74
2023/06/01 06:27:26;;;;;;;13.93;5.07;;;;;;;;;;5023551;28;20069;-73
2023/06/01 06:29:51;;;;;;;9.82;5.88;;;;;;;;;;5022720;28;20037;-73
2023/06/01 06:32:19;;;;;;;6.35;4.55;;;;;;;;;;5021790;28;20098;-73
2023/06/01 06:34:45;;;;;;;9.30;4.97;;;;;;;;;;5023702;28;20088;-75
2023/06/01 06:37:11;;;;;;;8.00;5.50;;;;;;;;;;5022142;28;20053;-75
2023/06/01 06:39:37;;;;;;;16.45;5.05;;;;;;;;;;5024390;28;20045;-73
2023/06/01 06:42:05;;;;;;;13.77;4.88;;;;;;;;;;5021107;28;20041;-75
2023/06/01 06:44:31;;;;;;;9.18;5.40;;;;;;;;;;5000041;28;20049;-75
2023/06/01 06:46:58;;;;;;;7.45;4.88;;;;;;;;;;5020507;28;20128;-77
2023/06/01 06:49:24;;;;;;;11.00;5.13;;;;;;;;;;5022925;28;20076;-75
2023/06/01 06:51:49;;;;;;;8.73;5.00;;;;;;;;;;5023623;28;20072;-74
2023/06/01 06:54:15;;;;;;;11.80;5.40;;;;;;;;;;5022254;28;20083;-73
2023/06/01 06:56:40;;;;;;;10.38;5.35;;;;;;;;;;5023980;28;20041;-75
2023/06/01 06:59:06;;;;;;;10.55;5.10;;;;;;;;;;5021770;28;20402;-72
2023/06/01 07:01:35;;;;;;;10.85;5.18;;;;;;;;;;5022131;28;20441;-74
2023/06/01 07:04:05;;;;;;;9.25;5.30;;;;;;;;;;5037754;28;21043;-74
2023/06/01 07:06:32;;;;;;;12.35;5.75;;;;;;;;;;5021738;28;20045;-73
2023/06/01 07:08:58;;;;;;;11.18;5.88;;;;;;;;;;5022663;28;20049;-74
2023/06/01 07:11:23;;;;;;;14.15;6.40;;;;;;;;;;5021101;28;20111;-74
2023/06/01 07:13:49;;;;;;;11.70;5.28;;;;;;;;;;5021086;28;20052;-74
2023/06/01 07:16:14;;;;;;;9.05;5.63;;;;;;;;;;5021887;28;20409;-75
2023/06/01 07:18:40;;;;;;;7.10;5.22;;;;;;;;;;5020711;28;20037;-73
2023/06/01 07:21:06;;;;;;;8.60;5.32;;;;;;;;;;5021882;28;20049;-73
2023/06/01 07:23:31;;;;;;;11.48;5.30;;;;;;;;;;5021101;28;20057;-74
2023/06/01 07:25:57;;;;;;;7.65;4.75;;;;;;;;;;5019864;28;20053;-74
2023/06/01 07:28:25;;;;;;;11.00;5.07;;;;;;;;;;5020955;28;20072;-75
2023/06/01 07:30:51;;;;;;;8.95;4.75;;;;;;;;;;5023474;28;20049;-75
2023/06/01 07:33:17;;;;;;;13.27;5.53;;;;;;;;;;5020999;28;20536;-76
2023/06/01 07:35:43;;;;;;;11.85;5.38;;;;;;;;;;5016702;28;20047;-78
2023/06/01 07:38:09;;;;;;;9.88;5.80;;;;;;;;;;5019097;28;20045;-76
2023/06/01 07:40:35;;;;;;;11.43;5.82;;;;;;;;;;5016937;28;20128;-76
2023/06/01 07:43:00;;;;;;;9.57;5.45;;;;;;;;;;5014359;28;20044;-76
2023/06/01 07:45:26;;;;;;;9.95;5.57;;;;;;;;;;5014302;28;20281;-76
2023/06/01 07:47:53;;;;;;;8.45;5.93;;;;;;;;;;5015242;28;20506;-75
2023/06/01 07:50:19;;;;;;;10.27;5.38;;;;;;;;;;5015957;28;20517;-75
2023/06/01 07:52:45;;;;;;;9.60;5.45;;;;;;;;;;5013948;28;20669;-75
2023/06/01 07:55:10;;;;;;;7.15;5.40;;;;;;;;;;5015207;28;20053;-76
2023/06/01 07:57:36;;;;;;;12.18;5.40;;;;;;;;;;5016360;28;20063;-76
2023/06/01 08:00:07;;;;;;;11.98;5.53;;;;;;;;;;5018943;28;20403;-76
2023/06/01 08:02:35;;;;;;;11.32;5.85;;;;;;;;;;5016260;28;20045;-75
2023/06/01 08:05:02;;;;;;;10.10;5.82;;;;;;;;;;5012261;28;20103;-75
2023/06/01 08:07:29;;;;;;;10.65;5.30;;;;;;;;;;5017067;28;20042;-74
2023/06/01 08:09:55;;;;;;;8.30;5.70;;;;;;;;;;5018288;28;20041;-74
2023/06/01 08:12:21;;;;;;;7.82;5.05;;;;;;;;;;5013353;28;20080;-75
2023/06/01 08:14:47;;;;;;;11.43;5.53;;;;;;;;;;5013013;28;20045;-77
2023/06/01 08:17:13;;;;;;;8.65;5.40;;;;;;;;;;5009136;28;20064;-76
2023/06/01 08:19:41;;;;;;;6.47;4.95;;;;;;;;;;5012202;28;20037;-75
2023/06/01 08:22:06;;;;;;;9.77;5.65;;;;;;;;;;5025242;28;20045;-77
2023/06/01 08:24:33;;;;;;;11.20;6.35;;;;;;;;;;5011952;28;20099;-76
2023/06/01 08:26:58;;;;;;;8.60;5.05;;;;;;;;;;5016348;28;20584;-78
2023/06/01 08:29:24;;;;;;;10.70;5.40;;;;;;;;;;5013863;28;20047;-76
2023/06/01 08:31:49;;;;;;;11.45;5.38;;;;;;;;;;5014311;28;20425;-76
2023/06/01 08:34:15;;;;;;;8.82;5.43;;;;;;;;;;5010806;28;20140;-77
2023/06/01 08:36:40;;;;;;;10.55;5.07;;;;;;;;;;5010795;28;20555;-76
2023/06/01 08:39:21;;;;;;;6.35;4.43;;;;;;;;;;5012967;28;20045;-76
2023/06/01 08:42:03;;;;;;;8.52;5.35;;;;;;;;;;5015647;28;20505;-77
2023/06/01 08:44:35;;;;;;;7.38;4.47;;;;;;;;;;5016967;28;20824;-76
2023/06/01 08:47:02;;;;;;;11.60;4.85;;;;;;;;;;5016065;28;20060;-76
2023/06/01 08:49:30;;;;;;;6.25;4.55;;;;;;;;;;5015454;28;20136;-77
2023/06/01 08:51:56;;;;;;;9.63;5.28;;;;;;;;;;5018029;28;20111;-74
2023/06/01 08:54:22;;;;;;;17.92;5.03;;;;;;;;;;5019712;28;20120;-73
2023/06/01 08:56:48;;;;;;;10.43;5.03;;;;;;;;;;5020993;28;20152;-74
2023/06/01 08:59:13;;;;;;;7.00;5.35;;;;;;;;;;5018877;28;20800;-74
2023/06/01 09:01:40;;;;;;;9.48;5.38;;;;;;;;;;5017623;28;20486;-74
2023/06/01 09:04:05;;;;;;;7.00;5.32;;;;;;;;;;5016729;28;20045;-74
2023/06/01 09:06:31;;;;;;;10.10;4.78;;;;;;;;;;5015378;28;20064;-76
2023/06/01 09:08:57;;;;;;;8.73;4.63;;;;;;;;;;5016139;28;20163;-75
2023/06/01 09:11:25;;;;;;;7.65;4.90;;;;;;;;;;5016080;28;20521;-74
2023/06/01 09:13:51;;;;;;;7.30;4.38;;;;;;;;;;5017872;28;20049;-75
2023/06/01 09:16:17;;;;;;;10.43;5.00;;;;;;;;;;5017776;28;20046;-74
2023/06/01 09:18:53;;;;;;;8.10;5.07;;;;;;;;;;4994417;28;20383;-75
2023/06/01 09:21:19;;;;;;;7.63;5.25;;;;;;;;;;5016585;28;20129;-76
2023/06/01 09:23:45;;;;;;;8.23;5.05;;;;;;;;;;5018986;28;20049;-76
2023/06/01 09:26:14;;;;;;;9.32;5.00;;;;;;;;;;5016697;28;20061;-74
2023/06/01 09:28:55;;;;;;;7.53;4.90;;;;;;;;;;5000999;28;20052;-76
2023/06/01 09:31:38;;;;;;;8.30;5.20;;;;;;;;;;5019954;28;20091;-77
2023/06/01 09:34:04;;;;;;;8.13;5.38;;;;;;;;;;5020364;28;20141;-76
2023/06/01 09:36:29;;;;;;;10.05;5.30;;;;;;;;;;5021862;28;20879;-75
2023/06/01 09:39:06;;;;;;;9.38;4.70;;;;;;;;;;5023200;28;20554;-75
2023/06/01 09:41:50;;;;;;;8.20;5.10;;;;;;;;;;5000787;28;20475;-76
2023/06/01 09:44:28;;;;;;;7.38;4.65;;;;;;;;;;5021862;28;20041;-74
2023/06/01 09:46:55;;;;;;;6.53;4.93;;;;;;;;;;5020846;28;20589;-77
2023/06/01 09:49:24;;;;;;;9.88;4.75;;;;;;;;;;5020393;28;20517;-75
2023/06/01 09:51:51;;;;;;;6.10;4.45;;;;;;;;;;5006895;28;20477;-78
2023/06/01 09:54:26;;;;;;;9.57;4.80;;;;;;;;;;5004849;28;20060;-76
2023/06/01 09:56:53;;;;;;;8.27;4.60;;;;;;;;;;5020026;28;20033;-75
2023/06/01 09:59:20;;;;;;;8.13;4.43;;;;;;;;;;5009868;28;20073;-75
2023/06/01 10:01:51;;;;;;;9.57;4.65;;;;;;;;;;5020290;28;20042;-76
2023/06/01 10:04:26;;;;;;;8.70;4.60;;;;;;;;;;5018410;28;20060;-75
2023/06/01 10:06:54;;;;;;;9.73;4.75;;;;;;;;;;5013792;28;20521;-75
2023/06/01 10:09:21;;;;;;;5.40;4.47;;;;;;;;;;5019854;28;20083;-73
2023/06/01 10:11:49;;;;;;;6.55;4.72;;;;;;;;;;5022942;28;20068;-74
2023/06/01 10:14:16;;;;;;;7.10;4.28;;;;;;;;;;5020519;28;20453;-75
2023/06/01 10:16:42;;;;;;;10.45;4.60;;;;;;;;;;5022242;28;20382;-75
2023/06/01 10:19:08;;;;;;;6.90;4.85;;;;;;;;;;5020705;28;20603;-76
2023/06/01 10:21:35;;;;;;;13.52;4.78;;;;;;;;;;5022388;28;20517;-76
2023/06/01 10:24:01;;;;;;;7.82;4.20;;;;;;;;;;5020233;28;20050;-77
2023/06/01 10:26:30;;;;;;;7.95;4.53;;;;;;;;;;5019982;28;20045;-76
2023/06/01 10:28:57;;;;;;;11.20;4.05;;;;;;;;;;5019178;28;20038;-76
2023/06/01 10:31:40;;;;;;;5.70;4.40;;;;;;;;;;5016145;28;20132;-77
2023/06/01 10:34:08;;;;;;;7.68;4.28;;;;;;;;;;5019250;28;20116;-76
2023/06/01 10:36:52;;;;;;;18.42;4.68;;;;;;;;;;5012958;28;21122;-76
2023/06/01 10:39:31;;;;;;;8.18;4.22;;;;;;;;;;5018603;28;20063;-77
2023/06/01 10:42:18;;;;;;;6.50;4.22;;;;;;;;;;5019847;28;20045;-78
2023/06/01 10:44:44;;;;;;;7.13;4.78;;;;;;;;;;5020889;28;20658;-76
2023/06/01 10:47:12;;;;;;;6.50;4.65;;;;;;;;;;5018459;28;20045;-79
2023/06/01 10:49:47;;;;;;;4.25;3.65;;;;;;;;;;5018717;28;20049;-76
2023/06/01 10:52:35;;;;;;;4.55;4.03;;;;;;;;;;5017860;28;20054;-77
2023/06/01 10:55:10;;;;;;;5.80;4.28;;;;;;;;;;5013965;28;20037;-76
2023/06/01 10:57:39;;;;;;;6.57;4.28;;;;;;;;;;5013661;28;20061;-77
2023/06/01 11:00:09;;;;;;;6.82;4.45;;;;;;;;;;5014439;28;20041;-77
2023/06/01 11:02:34;;;;;;;8.57;4.15;;;;;;;;;;5014316;28;20045;-76
2023/06/01 11:05:37;;;;;;;9.18;4.28;;;;;;;;;;5013607;28;20045;-75
2023/06/01 11:08:04;;;;;;;5.20;4.10;;;;;;;;;;5024597;28;20045;-75
2023/06/01 11:10:55;;;;;;;8.32;4.40;;;;;;;;;;5014178;28;20814;-75
2023/06/01 11:13:31;;;;;;;;;;;;;;;;;;5009099;28;20597;-76
2023/06/01 11:18:41;;;;;;;6.15;4.30;;;;;;;;;;5013031;28;20056;-76
2023/06/01 11:21:23;;;;;;;7.22;4.47;;;;;;;;;;5014223;28;20048;-76
2023/06/01 11:23:49;;;;;;;8.48;4.28;;;;;;;;;;5015228;28;20426;-76
2023/06/01 11:26:16;;;;;;;7.30;4.40;;;;;;;;;;5015008;28;20059;-78
2023/06/01 11:28:42;;;;;;;7.07;4.30;;;;;;;;;;5013965;28;20087;-78
2023/06/01 11:31:18;;;;;;;9.05;4.07;;;;;;;;;;5014424;28;20049;-78
2023/06/01 11:33:57;;;;;;;5.88;4.00;;;;;;;;;;5013447;28;20166;-78
2023/06/01 11:36:26;;;;;;;6.57;4.03;;;;;;;;;;5030452;28;20056;-77
2023/06/01 11:38:53;;;;;;;6.00;4.53;;;;;;;;;;5017692;28;20041;-77
2023/06/01 11:41:23;;;;;;;9.38;4.32;;;;;;;;;;5019762;28;20099;-79
2023/06/01 11:43:58;;;;;;;9.40;4.20;;;;;;;;;;5017343;28;20045;-77
2023/06/01 11:46:24;;;;;;;8.80;4.13;;;;;;;;;;5018919;28;20085;-76
2023/06/01 11:49:05;;;;;;;5.82;3.78;;;;;;;;;;5018740;28;20042;-72
2023/06/01 11:51:38;;;;;;;8.68;4.47;;;;;;;;;;5017714;28;20045;-77
2023/06/01 11:54:05;;;;;;;6.93;4.45;;;;;;;;;;5017741;28;20102;-77
2023/06/01 11:56:33;;;;;;;8.05;4.63;;;;;;;;;;5018578;28;20054;-77
2023/06/01 11:59:08;;;;;;;7.40;4.38;;;;;;;;;;5017186;28;20056;-78
2023/06/01 12:01:44;;;;;;;5.32;3.90;;;;;;;;;;5027415;28;20180;-75
2023/06/01 12:04:17;;;;;;;7.30;4.03;;;;;;;;;;5013023;28;20057;-78
2023/06/01 12:06:44;;;;;;;6.30;4.00;;;;;;;;;;5010927;28;20052;-75
2023/06/01 12:09:11;;;;;;;5.65;4.00;;;;;;;;;;5013154;28;20083;-74
2023/06/01 12:11:37;;;;;;;5.15;3.90;;;;;;;;;;5014331;28;20588;-75
2023/06/01 12:14:12;;;;;;;6.65;4.40;;;;;;;;;;5011185;28;20052;-76
2023/06/01 12:17:01;;;;;;;6.20;4.47;;;;;;;;;;5016485;28;20144;-74
2023/06/01 12:19:28;;;;;;;10.45;4.45;;;;;;;;;;5014863;28;20091;-76
2023/06/01 12:21:55;;;;;;;7.40;4.82;;;;;;;;;;5014912;28;20556;-76
2023/06/01 12:24:32;;;;;;;5.70;4.30;;;;;;;;;;5018890;28;20045;-75
2023/06/01 12:27:02;;;;;;;6.60;4.50;;;;;;;;;;5018556;28;20212;-76
2023/06/01 12:29:47;;;;;;;7.18;3.75;;;;;;;;;;5000038;28;20108;-75
2023/06/01 12:32:15;;;;;;;7.18;4.13;;;;;;;;;;5017284;28;20045;-76
2023/06/01 12:34:48;;;;;;;5.53;3.80;;;;;;;;;;5016437;28;20053;-74
2023/06/01 12:37:18;;;;;;;5.82;4.40;;;;;;;;;;5017516;28;20053;-75
2023/06/01 12:39:52;;;;;;;6.00;3.83;;;;;;;;;;5018986;28;20132;-74
2023/06/01 12:42:17;;;;;;;6.65;4.18;;;;;;;;;;5012449;28;20067;-75
2023/06/01 12:44:43;;;;;;;5.00;3.95;;;;;;;;;;5016627;28;20046;-74
2023/06/01 12:47:08;;;;;;;6.93;4.20;;;;;;;;;;5015987;28;20482;-74
2023/06/01 12:49:34;;;;;;;6.03;4.63;;;;;;;;;;5017136;28;20063;-77
2023/06/01 12:52:01;;;;;;;6.50;4.45;;;;;;;;;;5017289;28;20156;-74
2023/06/01 12:54:27;;;;;;;6.15;4.55;;;;;;;;;;5016970;28;20042;-75
2023/06/01 12:56:52;;;;;;;6.18;4.45;;;;;;;;;;5017303;28;20144;-75
2023/06/01 12:59:18;;;;;;;5.10;4.50;;;;;;;;;;5016182;28;20094;-75
2023/06/01 13:01:44;;;;;;;8.75;4.07;;;;;;;;;;5017359;28;20045;-75
2023/06/01 13:04:09;;;;;;;9.45;4.63;;;;;;;;;;5018067;28;20090;-73
2023/06/01 13:06:35;;;;;;;7.18;4.15;;;;;;;;;;5020873;28;20045;-75
2023/06/01 13:09:01;;;;;;;8.07;4.28;;;;;;;;;;5021301;28;20049;-75
2023/06/01 13:11:27;;;;;;;6.90;4.15;;;;;;;;;;5018009;28;20124;-76
2023/06/01 13:13:53;;;;;;;8.80;4.25;;;;;;;;;;5021225;28;20057;-76
2023/06/01 13:16:19;;;;;;;4.32;3.92;;;;;;;;;;5020432;28;20581;-75
2023/06/01 13:18:47;;;;;;;5.05;3.60;;;;;;;;;;5020281;28;20132;-75
2023/06/01 13:21:14;;;;;;;6.25;3.40;;;;;;;;;;5017332;28;20049;-75
2023/06/01 13:23:40;;;;;;;5.80;3.67;;;;;;;;;;5018757;28;20049;-74
2023/06/01 13:26:07;;;;;;;6.72;3.72;;;;;;;;;;4998601;28;20127;-77
2023/06/01 13:28:33;;;;;;;10.80;3.53;;;;;;;;;;5019151;28;21093;-76
2023/06/01 13:30:59;;;;;;;3.55;3.17;;;;;;;;;;5021256;28;20463;-77
2023/06/01 13:33:25;;;;;;;6.38;4.05;;;;;;;;;;5018476;28;20132;-75
2023/06/01 13:35:51;;;;;;;6.50;3.67;;;;;;;;;;5020911;28;20100;-75
2023/06/01 13:38:16;;;;;;;4.80;3.50;;;;;;;;;;5020878;28;20041;-76
2023/06/01 13:40:42;;;;;;;6.97;3.80;;;;;;;;;;5019706;28;20056;-77
2023/06/01 13:43:07;;;;;;;7.32;3.50;;;;;;;;;;5020670;28;20049;-77
2023/06/01 13:45:33;;;;;;;6.25;4.05;;;;;;;;;;5020728;28;20206;-75
2023/06/01 13:47:58;;;;;;;7.00;4.05;;;;;;;;;;5023023;28;20073;-75
2023/06/01 13:50:24;;;;;;;3.97;3.55;;;;;;;;;;5021560;28;20056;-76
2023/06/01 13:52:50;;;;;;;4.57;3.42;;;;;;;;;;5020700;28;20145;-75
2023/06/01 13:55:16;;;;;;;5.88;4.05;;;;;;;;;;5018369;28;20083;-76
2023/06/01 13:57:41;;;;;;;4.43;3.55;;;;;;;;;;5018133;28;20881;-75
2023/06/01 14:00:08;;;;;;;5.68;3.63;;;;;;;;;;5004091;28;20041;-76
2023/06/01 14:02:34;;;;;;;4.90;3.53;;;;;;;;;;5021104;28;20052;-75
2023/06/01 14:05:00;;;;;;;4.18;3.50;;;;;;;;;;5021369;28;20050;-77
2023/06/01 14:07:25;;;;;;;6.88;4.03;;;;;;;;;;5020869;28;20053;-76
2023/06/01 14:09:51;;;;;;;5.90;3.83;;;;;;;;;;5022214;28;21102;-77
2023/06/01 14:12:16;;;;;;;4.90;3.25;;;;;;;;;;5033556;28;20046;-77
2023/06/01 14:14:42;;;;;;;9.48;3.70;;;;;;;;;;5017954;28;20056;-77
2023/06/01 14:17:07;;;;;;;9.73;3.83;;;;;;;;;;5033443;28;20094;-76
2023/06/01 14:19:33;;;;;;;7.53;3.75;;;;;;;;;;5019060;28;20753;-77
2023/06/01 14:21:58;;;;;;;7.38;3.83;;;;;;;;;;5020121;28;20049;-74
2023/06/01 14:24:23;;;;;;;6.13;3.88;;;;;;;;;;5019774;28;20521;-76
2023/06/01 14:26:49;;;;;;;8.82;3.92;;;;;;;;;;5023826;28;20044;-77
2023/06/01 14:29:15;;;;;;;5.82;4.00;;;;;;;;;;5020756;28;20129;-77
2023/06/01 14:31:40;;;;;;;25.48;5.40;;;;;;;;;;5026955;28;20053;-77
2023/06/01 14:34:06;;;;;;;5.25;3.75;;;;;;;;;;5024350;28;20581;-76
2023/06/01 14:36:31;;;;;;;4.13;3.33;;;;;;;;;;5023406;28;20052;-76
2023/06/01 14:38:57;;;;;;;8.55;3.67;;;;;;;;;;5020339;28;20037;-75
2023/06/01 14:41:22;;;;;;;8.88;3.70;;;;;;;;;;5004632;28;20057;-75
2023/06/01 14:43:47;;;;;;;11.93;4.18;;;;;;;;;;5022942;28;20055;-75
2023/06/01 14:46:13;;;;;;;23.10;4.70;;;;;;;;;;5022537;28;20592;-76
2023/06/01 14:48:38;;;;;;;5.05;4.10;;;;;;;;;;5032310;28;20045;-75